createdAt,value
2022-08-23T00:00:13.171Z,14.70
2022-08-23T00:02:43.286Z,14.80
2022-08-23T00:05:12.077Z,14.80
2022-08-23T00:07:40.996Z,14.50
2022-08-23T00:10:10.629Z,14.10
2022-08-23T00:12:39.030Z,14.20
2022-08-23T00:15:09.932Z,14.40
2022-08-23T00:17:38.117Z,14.40
2022-08-23T00:20:07.271Z,14.50
2022-08-23T00:22:35.583Z,14.50
2022-08-23T00:25:03.607Z,14.40
2022-08-23T00:27:31.775Z,14.40
2022-08-23T00:29:59.831Z,14.40
2022-08-23T00:32:31.532Z,14.40
2022-08-23T00:35:01.543Z,14.20
2022-08-23T00:37:32.271Z,14.20
2022-08-23T00:40:00.665Z,14.20
2022-08-23T00:42:49.081Z,14.30
2022-08-23T00:45:35.748Z,14.00
2022-08-23T00:48:06.550Z,14.00
2022-08-23T00:50:38.238Z,13.90
2022-08-23T00:53:10.062Z,14.00
2022-08-23T00:55:40.209Z,14.10
2022-08-23T00:58:08.934Z,14.00
2022-08-23T01:00:36.971Z,14.10
2022-08-23T01:03:11.679Z,14.10
2022-08-23T01:05:44.873Z,14.10
2022-08-23T01:08:13.159Z,13.90
2022-08-23T01:10:43.370Z,13.60
2022-08-23T01:13:14.247Z,13.50
2022-08-23T01:15:44.797Z,13.50
2022-08-23T01:18:16.759Z,13.80
2022-08-23T01:20:49.679Z,13.80
2022-08-23T01:23:25.898Z,13.90
2022-08-23T01:25:54.246Z,14.00
2022-08-23T01:28:22.297Z,14.00
2022-08-23T01:30:50.657Z,14.10
2022-08-23T01:33:18.890Z,14.00
2022-08-23T01:35:50.357Z,14.00
2022-08-23T01:38:18.378Z,14.00
2022-08-23T01:40:50.145Z,14.00
2022-08-23T01:43:21.672Z,14.00
2022-08-23T01:45:50.985Z,14.00
2022-08-23T01:48:19.647Z,14.00
2022-08-23T01:50:48.134Z,14.00
2022-08-23T01:53:19.626Z,14.00
2022-08-23T01:55:49.775Z,13.90
2022-08-23T01:58:17.877Z,14.00
2022-08-23T02:00:47.878Z,13.90
2022-08-23T02:03:17.298Z,13.80
2022-08-23T02:05:46.165Z,13.90
2022-08-23T02:08:32.288Z,14.00
2022-08-23T02:11:02.007Z,14.00
2022-08-23T02:13:29.966Z,14.00
2022-08-23T02:15:58.574Z,14.00
2022-08-23T02:18:27.060Z,14.00
2022-08-23T02:20:55.127Z,13.90
2022-08-23T02:23:23.724Z,13.80
2022-08-23T02:25:52.675Z,13.90
2022-08-23T02:28:23.662Z,13.80
2022-08-23T02:30:52.218Z,13.60
2022-08-23T02:33:20.413Z,13.60
2022-08-23T02:35:49.053Z,13.70
2022-08-23T02:38:18.290Z,13.70
2022-08-23T02:40:46.463Z,13.80
2022-08-23T02:43:22.319Z,13.80
2022-08-23T02:45:51.989Z,13.80
2022-08-23T02:48:20.326Z,13.70
2022-08-23T02:50:50.061Z,13.70
2022-08-23T02:53:18.771Z,13.80
2022-08-23T02:55:46.941Z,13.90
2022-08-23T02:58:15.498Z,13.80
2022-08-23T03:00:47.402Z,13.70
2022-08-23T03:03:16.275Z,13.70
2022-08-23T03:05:44.605Z,13.70
2022-08-23T03:08:13.262Z,13.80
2022-08-23T03:10:43.415Z,13.80
2022-08-23T03:13:12.251Z,13.70
2022-08-23T03:15:40.253Z,13.80
2022-08-23T03:18:11.217Z,13.60
2022-08-23T03:20:40.635Z,13.70
2022-08-23T03:23:09.030Z,13.70
2022-08-23T03:25:37.759Z,13.80
2022-08-23T03:28:09.347Z,13.80
2022-08-23T03:30:37.786Z,13.90
2022-08-23T03:33:06.283Z,13.80
2022-08-23T03:35:35.887Z,13.70
2022-08-23T03:38:04.130Z,13.70
2022-08-23T03:40:32.151Z,13.80
2022-08-23T03:43:01.434Z,13.80
2022-08-23T03:45:29.599Z,13.70
2022-08-23T03:47:58.206Z,13.90
2022-08-23T03:50:26.299Z,13.90
2022-08-23T03:53:00.180Z,13.90
2022-08-23T03:55:28.486Z,13.90
2022-08-23T03:57:56.526Z,13.90
2022-08-23T04:00:30.020Z,13.90
2022-08-23T04:02:58.120Z,13.80
2022-08-23T04:05:26.431Z,13.70
2022-08-23T04:07:55.307Z,13.80
2022-08-23T04:10:24.917Z,13.80
2022-08-23T04:12:55.100Z,13.90
2022-08-23T04:15:24.445Z,13.90
2022-08-23T04:17:52.551Z,13.90
2022-08-23T04:20:21.027Z,14.00
2022-08-23T04:22:52.406Z,14.00
2022-08-23T04:25:34.563Z,14.00
2022-08-23T04:28:07.072Z,14.00
2022-08-23T04:30:35.308Z,14.10
2022-08-23T04:33:04.057Z,14.10
2022-08-23T04:35:39.170Z,14.10
2022-08-23T04:38:18.181Z,14.20
2022-08-23T04:41:11.334Z,14.30
2022-08-23T04:43:41.385Z,14.30
2022-08-23T04:46:10.389Z,14.30
2022-08-23T04:48:38.497Z,14.40
2022-08-23T04:51:06.981Z,14.40
2022-08-23T04:53:35.530Z,14.50
2022-08-23T04:56:04.243Z,14.50
2022-08-23T04:58:33.134Z,14.60
2022-08-23T05:01:03.974Z,14.60
2022-08-23T05:03:32.655Z,14.60
2022-08-23T05:06:01.390Z,14.70
2022-08-23T05:08:32.909Z,14.70
2022-08-23T05:11:06.353Z,14.80
2022-08-23T05:13:35.056Z,14.80
2022-08-23T05:16:05.910Z,14.90
2022-08-23T05:18:35.043Z,14.90
2022-08-23T05:21:03.175Z,15.30
2022-08-23T05:23:31.809Z,15.00
2022-08-23T05:26:00.623Z,15.10
2022-08-23T05:28:29.707Z,15.20
2022-08-23T05:30:59.698Z,15.30
2022-08-23T05:33:32.256Z,15.40
2022-08-23T05:36:00.551Z,15.50
2022-08-23T05:38:29.602Z,15.50
2022-08-23T05:40:59.974Z,15.50
2022-08-23T05:43:31.446Z,15.50
2022-08-23T05:46:04.670Z,15.60
2022-08-23T05:48:35.062Z,15.70
2022-08-23T05:51:10.412Z,15.80
2022-08-23T05:53:39.819Z,15.90
2022-08-23T05:56:12.642Z,16.00
2022-08-23T05:58:40.962Z,16.10
2022-08-23T06:01:09.207Z,16.20
2022-08-23T06:03:39.031Z,16.30
2022-08-23T06:06:08.005Z,16.40
2022-08-23T06:08:36.522Z,16.50
2022-08-23T06:11:05.199Z,16.60
2022-08-23T06:13:33.559Z,16.60
2022-08-23T06:16:14.283Z,16.70
2022-08-23T06:18:45.357Z,16.80
2022-08-23T06:21:14.475Z,16.90
2022-08-23T06:23:43.248Z,16.90
2022-08-23T06:26:12.518Z,17.10
2022-08-23T06:28:50.309Z,17.10
2022-08-23T06:31:40.099Z,17.30
2022-08-23T06:34:11.403Z,17.40
2022-08-23T06:36:39.438Z,17.70
2022-08-23T06:39:12.282Z,17.80
2022-08-23T06:41:40.381Z,17.90
2022-08-23T06:44:08.645Z,17.90
2022-08-23T06:46:40.017Z,17.90
2022-08-23T06:49:09.963Z,17.90
2022-08-23T06:51:39.196Z,18.00
2022-08-23T06:54:08.374Z,18.00
2022-08-23T06:56:37.534Z,18.20
2022-08-23T06:59:06.591Z,18.40
2022-08-23T07:01:51.608Z,18.50
2022-08-23T07:04:21.976Z,18.60
2022-08-23T07:06:49.959Z,18.60
2022-08-23T07:09:18.727Z,18.60
2022-08-23T07:11:46.782Z,18.70
2022-08-23T07:14:16.545Z,18.70
2022-08-23T07:16:46.067Z,18.70
2022-08-23T07:19:14.121Z,18.80
2022-08-23T07:21:44.016Z,18.90
2022-08-23T07:24:14.397Z,18.80
2022-08-23T07:26:44.101Z,18.90
2022-08-23T07:29:12.614Z,19.00
2022-08-23T07:31:43.163Z,19.00
2022-08-23T07:34:11.379Z,18.90
2022-08-23T07:36:42.060Z,18.90
2022-08-23T07:39:12.191Z,19.10
2022-08-23T07:41:40.495Z,19.20
2022-08-23T07:44:10.021Z,19.40
2022-08-23T07:46:41.746Z,19.20
2022-08-23T07:49:11.538Z,19.30
2022-08-23T07:51:40.841Z,19.50
2022-08-23T07:54:12.715Z,19.60
2022-08-23T07:56:42.343Z,19.60
2022-08-23T07:59:10.889Z,19.60
2022-08-23T08:01:39.449Z,19.70
2022-08-23T08:04:08.295Z,19.70
2022-08-23T08:06:39.994Z,19.50
2022-08-23T08:09:08.498Z,19.30
2022-08-23T08:11:37.009Z,19.50
2022-08-23T08:14:08.309Z,19.50
2022-08-23T08:16:37.881Z,19.60
2022-08-23T08:19:07.786Z,19.50
2022-08-23T08:21:39.549Z,19.60
2022-08-23T08:24:12.765Z,19.50
2022-08-23T08:26:43.663Z,19.40
2022-08-23T08:29:13.579Z,19.50
2022-08-23T08:31:42.669Z,19.80
2022-08-23T08:34:10.839Z,19.80
2022-08-23T08:36:39.803Z,19.70
2022-08-23T08:39:11.529Z,19.70
2022-08-23T08:41:51.179Z,19.80
2022-08-23T08:44:39.730Z,19.90
2022-08-23T08:47:09.410Z,20.00
2022-08-23T08:49:41.202Z,20.10
2022-08-23T08:52:14.808Z,20.20
2022-08-23T08:54:47.868Z,20.30
2022-08-23T08:57:17.438Z,20.30
2022-08-23T08:59:52.867Z,20.10
2022-08-23T09:02:32.671Z,20.20
2022-08-23T09:05:02.704Z,20.00
2022-08-23T09:07:36.925Z,20.00
2022-08-23T09:10:10.172Z,20.20
2022-08-23T09:12:47.561Z,20.40
2022-08-23T09:15:31.308Z,20.40
2022-08-23T09:18:04.885Z,20.30
2022-08-23T09:20:34.761Z,20.40
2022-08-23T09:23:08.609Z,20.40
2022-08-23T09:25:36.747Z,20.60
2022-08-23T09:28:05.366Z,20.70
2022-08-23T09:30:50.417Z,20.80
2022-08-23T09:33:19.542Z,20.60
2022-08-23T09:36:03.467Z,20.60
2022-08-23T09:38:31.731Z,20.60
2022-08-23T09:40:59.871Z,20.60
2022-08-23T09:43:29.217Z,20.60
2022-08-23T09:46:00.998Z,20.40
2022-08-23T09:48:39.122Z,20.30
2022-08-23T09:51:11.209Z,20.50
2022-08-23T09:53:49.583Z,20.60
2022-08-23T09:56:19.817Z,20.50
2022-08-23T09:58:51.103Z,20.40
2022-08-23T10:01:22.227Z,20.60
2022-08-23T10:04:08.667Z,20.60
2022-08-23T10:06:37.570Z,20.90
2022-08-23T10:09:06.307Z,21.00
2022-08-23T10:11:37.331Z,21.00
2022-08-23T10:14:05.707Z,20.80
2022-08-23T10:16:41.057Z,20.90
2022-08-23T10:19:16.036Z,21.00
2022-08-23T10:21:47.328Z,21.30
2022-08-23T10:24:17.478Z,20.90
2022-08-23T10:26:48.716Z,20.60
2022-08-23T10:29:37.848Z,20.60
2022-08-23T10:32:13.401Z,20.90
2022-08-23T10:34:50.696Z,20.90
2022-08-23T10:37:26.268Z,20.60
2022-08-23T10:40:01.572Z,21.50
2022-08-23T10:42:37.758Z,20.80
2022-08-23T10:45:11.723Z,20.80
2022-08-23T10:47:52.115Z,21.10
2022-08-23T10:50:22.111Z,20.90
2022-08-23T10:52:53.184Z,20.90
2022-08-23T10:55:35.830Z,20.80
2022-08-23T10:58:06.584Z,20.60
2022-08-23T11:00:35.383Z,20.90
2022-08-23T11:03:08.988Z,21.20
2022-08-23T11:05:38.919Z,21.20
2022-08-23T11:08:08.482Z,20.90
2022-08-23T11:10:53.689Z,20.60
2022-08-23T11:13:25.919Z,20.50
2022-08-23T11:15:59.071Z,20.70
2022-08-23T11:18:40.252Z,21.20
2022-08-23T11:21:10.338Z,20.80
2022-08-23T11:23:43.390Z,21.10
2022-08-23T11:26:12.241Z,20.80
2022-08-23T11:28:42.554Z,20.80
2022-08-23T11:31:22.743Z,20.90
2022-08-23T11:33:54.094Z,20.90
2022-08-23T11:36:24.001Z,20.70
2022-08-23T11:39:03.132Z,20.60
2022-08-23T11:41:32.854Z,20.70
2022-08-23T11:44:23.354Z,20.60
2022-08-23T11:46:59.683Z,20.70
2022-08-23T11:49:54.749Z,20.60
2022-08-23T11:52:33.039Z,20.80
2022-08-23T11:55:12.789Z,20.70
2022-08-23T11:57:49.611Z,20.80
2022-08-23T12:00:28.639Z,20.90
2022-08-23T12:03:05.654Z,20.80
2022-08-23T12:06:03.921Z,20.70
2022-08-23T12:08:56.610Z,20.80
2022-08-23T12:11:28.630Z,20.60
2022-08-23T12:14:04.324Z,20.40
2022-08-23T12:16:44.166Z,20.80
2022-08-23T12:19:21.791Z,20.50
2022-08-23T12:21:55.955Z,21.20
2022-08-23T12:24:26.486Z,21.10
2022-08-23T12:27:03.933Z,21.60
2022-08-23T12:29:36.361Z,21.30
2022-08-23T12:32:08.531Z,21.10
2022-08-23T12:34:42.060Z,20.80
2022-08-23T12:37:16.187Z,20.80
2022-08-23T12:39:50.453Z,20.80
2022-08-23T12:42:21.314Z,21.10
2022-08-23T12:45:00.663Z,20.70
2022-08-23T12:47:28.638Z,21.30
2022-08-23T12:49:58.600Z,21.50
2022-08-23T12:52:28.122Z,21.20
2022-08-23T12:54:58.137Z,21.00
2022-08-23T12:57:34.763Z,21.30
2022-08-23T13:00:17.534Z,21.60
2022-08-23T13:02:49.348Z,21.70
2022-08-23T13:05:23.452Z,21.70
2022-08-23T13:07:52.049Z,22.00
2022-08-23T13:10:20.364Z,21.50
2022-08-23T13:12:50.531Z,21.90
2022-08-23T13:15:39.966Z,21.50
2022-08-23T13:18:08.290Z,21.20
2022-08-23T13:20:38.675Z,21.00
2022-08-23T13:23:09.633Z,21.30
2022-08-23T13:25:41.240Z,21.00
2022-08-23T13:28:22.450Z,20.90
2022-08-23T13:31:00.532Z,20.60
2022-08-23T13:33:28.607Z,20.40
2022-08-23T13:36:13.352Z,20.50
2022-08-23T13:38:43.264Z,20.80
2022-08-23T13:41:14.108Z,21.00
2022-08-23T13:43:47.914Z,21.20
2022-08-23T13:46:16.757Z,21.10
2022-08-23T13:48:47.582Z,20.90
2022-08-23T13:51:19.455Z,20.50
2022-08-23T13:53:47.835Z,20.30
2022-08-23T13:56:16.461Z,20.40
2022-08-23T13:58:44.575Z,20.30
2022-08-23T14:01:20.533Z,20.40
2022-08-23T14:03:48.596Z,20.30
2022-08-23T14:06:17.031Z,20.70
2022-08-23T14:08:45.129Z,20.50
2022-08-23T14:11:15.940Z,20.10
2022-08-23T14:13:48.642Z,20.20
2022-08-23T14:16:40.236Z,20.00
2022-08-23T14:19:54.381Z,20.00
2022-08-23T14:21:57.478Z,20.30
2022-08-23T14:24:26.893Z,20.00
2022-08-23T14:26:55.906Z,20.10
2022-08-23T14:29:25.015Z,19.80
2022-08-23T14:31:54.804Z,20.20
2022-08-23T14:34:23.378Z,20.10
2022-08-23T14:39:39.664Z,19.90
2022-08-23T14:42:08.227Z,19.70
2022-08-23T14:44:36.606Z,20.00
2022-08-23T14:47:07.113Z,19.70
2022-08-23T14:49:36.123Z,19.70
2022-08-23T14:52:04.783Z,19.70
2022-08-23T14:54:33.687Z,19.50
2022-08-23T14:57:04.546Z,19.30
2022-08-23T14:59:32.818Z,19.20
2022-08-23T15:02:04.272Z,19.20
2022-08-23T15:04:35.071Z,19.40
2022-08-23T15:07:19.581Z,19.30
2022-08-23T15:09:48.206Z,19.20
2022-08-23T15:15:05.367Z,19.20
2022-08-23T15:17:36.350Z,19.20
2022-08-23T15:20:06.659Z,19.10
2022-08-23T15:22:34.716Z,19.10
2022-08-23T15:25:13.129Z,19.20
2022-08-23T15:27:41.186Z,19.20
2022-08-23T15:30:09.961Z,19.20
2022-08-23T15:32:38.055Z,19.30
2022-08-23T15:35:08.829Z,19.20
2022-08-23T15:37:37.089Z,19.40
2022-08-23T15:40:05.800Z,19.30
2022-08-23T15:42:35.548Z,19.40
2022-08-23T15:45:03.568Z,19.50
2022-08-23T15:47:32.944Z,19.40
2022-08-23T15:50:01.511Z,19.40
2022-08-23T15:52:30.985Z,19.40
2022-08-23T15:54:59.250Z,19.30
2022-08-23T15:57:29.818Z,19.20
2022-08-23T15:59:58.358Z,19.00
2022-08-23T16:02:26.340Z,19.00
2022-08-23T16:04:54.433Z,18.90
2022-08-23T16:07:25.168Z,18.90
2022-08-23T16:09:54.657Z,18.90
2022-08-23T16:12:22.746Z,19.10
2022-08-23T16:14:51.055Z,19.20
2022-08-23T16:17:20.299Z,19.20
2022-08-23T16:19:49.483Z,19.10
2022-08-23T16:22:17.873Z,19.00
2022-08-23T16:24:45.910Z,19.10
2022-08-23T16:27:18.080Z,19.10
2022-08-23T16:30:04.339Z,19.00
2022-08-23T16:32:32.658Z,19.10
2022-08-23T16:35:03.677Z,19.20
2022-08-23T16:37:31.723Z,19.20
2022-08-23T16:39:59.836Z,19.10
2022-08-23T16:42:29.562Z,19.10
2022-08-23T16:44:57.538Z,19.10
2022-08-23T16:47:25.601Z,19.10
2022-08-23T16:49:54.176Z,19.10
2022-08-23T16:52:24.833Z,19.00
2022-08-23T16:55:02.194Z,18.90
2022-08-23T16:57:31.687Z,18.60
2022-08-23T16:59:59.719Z,18.30
2022-08-23T17:02:29.656Z,18.40
2022-08-23T17:04:58.241Z,18.50
2022-08-23T17:07:26.526Z,18.50
2022-08-23T17:09:54.555Z,18.60
2022-08-23T17:12:23.044Z,18.50
2022-08-23T17:14:57.391Z,18.40
2022-08-23T17:17:25.719Z,18.40
2022-08-23T17:19:53.897Z,18.40
2022-08-23T17:22:21.976Z,18.40
2022-08-23T17:24:53.227Z,18.30
2022-08-23T17:27:21.860Z,18.30
2022-08-23T17:29:52.805Z,18.30
2022-08-23T17:32:24.795Z,18.20
2022-08-23T17:34:52.857Z,18.10
2022-08-23T17:37:22.637Z,18.00
2022-08-23T17:39:53.191Z,18.10
2022-08-23T17:42:21.988Z,18.10
2022-08-23T17:44:50.243Z,18.20
2022-08-23T17:47:19.601Z,18.20
2022-08-23T17:49:50.195Z,18.20
2022-08-23T17:52:19.366Z,18.00
2022-08-23T17:54:48.147Z,17.90
2022-08-23T17:57:17.954Z,17.90
2022-08-23T17:59:46.439Z,17.90
2022-08-23T18:02:17.619Z,17.80
2022-08-23T18:04:46.223Z,17.80
2022-08-23T18:07:16.324Z,17.70
2022-08-23T18:09:48.562Z,17.50
2022-08-23T18:12:17.412Z,17.40
2022-08-23T18:14:45.753Z,17.40
2022-08-23T18:17:13.820Z,17.50
2022-08-23T18:19:42.097Z,17.50
2022-08-23T18:22:10.694Z,17.40
2022-08-23T18:24:43.445Z,17.30
2022-08-23T18:27:29.124Z,17.40
2022-08-23T18:29:57.590Z,17.40
2022-08-23T18:32:26.708Z,17.40
2022-08-23T18:34:55.071Z,17.40
2022-08-23T18:37:26.751Z,17.40
2022-08-23T18:39:56.488Z,17.50
2022-08-23T18:42:24.989Z,17.40
2022-08-23T18:44:56.125Z,17.10
2022-08-23T18:47:24.560Z,17.10
2022-08-23T18:49:53.437Z,17.20
2022-08-23T18:52:23.402Z,17.10
2022-08-23T18:54:52.056Z,17.10
2022-08-23T18:57:22.090Z,17.20
2022-08-23T18:59:51.211Z,17.10
2022-08-23T19:02:23.946Z,17.20
2022-08-23T19:04:53.574Z,17.10
2022-08-23T19:07:23.191Z,16.80
2022-08-23T19:09:53.355Z,16.60
2022-08-23T19:12:25.505Z,16.60
2022-08-23T19:14:58.845Z,16.70
2022-08-23T19:17:31.855Z,16.90
2022-08-23T19:20:05.996Z,16.90
2022-08-23T19:22:34.676Z,16.90
2022-08-23T19:25:04.790Z,16.80
2022-08-23T19:27:35.478Z,16.80
2022-08-23T19:30:04.505Z,16.80
2022-08-23T19:32:35.659Z,16.70
2022-08-23T19:35:06.322Z,16.70
2022-08-23T19:37:36.284Z,16.60
2022-08-23T19:40:09.745Z,16.60
2022-08-23T19:42:40.633Z,16.50
2022-08-23T19:45:09.887Z,16.50
2022-08-23T19:47:38.154Z,16.40
2022-08-23T19:50:07.234Z,16.50
2022-08-23T19:52:35.866Z,16.50
2022-08-23T19:55:05.828Z,16.40
2022-08-23T19:57:37.094Z,16.40
2022-08-23T20:00:10.634Z,16.40
2022-08-23T20:02:38.880Z,16.40
2022-08-23T20:05:12.047Z,16.30
2022-08-23T20:07:40.202Z,16.30
2022-08-23T20:10:09.623Z,16.20
2022-08-23T20:12:37.924Z,16.20
2022-08-23T20:15:09.178Z,15.90
2022-08-23T20:17:37.522Z,15.70
2022-08-23T20:20:08.567Z,15.80
2022-08-23T20:22:54.435Z,15.90
2022-08-23T20:25:22.443Z,15.90
2022-08-23T20:27:50.527Z,16.00
2022-08-23T20:30:19.946Z,16.10
2022-08-23T20:32:48.035Z,16.20
2022-08-23T20:35:16.075Z,16.20
2022-08-23T20:37:44.045Z,16.10
2022-08-23T20:40:14.643Z,16.10
2022-08-23T20:42:42.952Z,16.00
2022-08-23T20:45:11.331Z,16.00
2022-08-23T20:47:43.727Z,16.00
2022-08-23T20:50:14.880Z,15.90
2022-08-23T20:52:43.143Z,15.90
2022-08-23T20:55:11.917Z,15.90
2022-08-23T20:57:39.932Z,15.90
2022-08-23T21:00:08.946Z,15.80
2022-08-23T21:02:37.118Z,15.70
2022-08-23T21:05:07.266Z,15.70
2022-08-23T21:07:35.468Z,15.60
2022-08-23T21:10:05.296Z,15.70
2022-08-23T21:12:33.300Z,15.70
2022-08-23T21:15:11.086Z,15.70
2022-08-23T21:17:39.914Z,15.70
2022-08-23T21:20:09.721Z,15.70
2022-08-23T21:22:38.157Z,15.70
2022-08-23T21:25:06.796Z,15.70
2022-08-23T21:27:38.321Z,15.70
2022-08-23T21:30:07.077Z,15.70
2022-08-23T21:32:35.072Z,15.60
2022-08-23T21:35:03.314Z,15.50
2022-08-23T21:37:34.481Z,15.50
2022-08-23T21:40:02.777Z,15.50
2022-08-23T21:42:33.626Z,15.40
2022-08-23T21:45:01.997Z,15.20
2022-08-23T21:47:31.233Z,15.30
2022-08-23T21:49:59.266Z,15.50
2022-08-23T21:52:27.252Z,15.50
2022-08-23T21:54:56.770Z,15.40
2022-08-23T21:57:24.991Z,15.50
2022-08-23T21:59:53.296Z,15.40
2022-08-23T22:02:21.416Z,15.40
2022-08-23T22:04:49.943Z,15.30
2022-08-23T22:07:17.972Z,15.30
2022-08-23T22:09:46.177Z,15.20
2022-08-23T22:12:16.003Z,15.20
2022-08-23T22:14:46.887Z,15.20
2022-08-23T22:17:17.999Z,15.20
2022-08-23T22:19:46.102Z,15.10
2022-08-23T22:22:15.177Z,15.10
2022-08-23T22:24:43.297Z,15.10
2022-08-23T22:27:11.560Z,15.10
2022-08-23T22:29:41.170Z,15.10
2022-08-23T22:32:10.814Z,14.90
2022-08-23T22:34:39.099Z,14.90
2022-08-23T22:37:07.230Z,14.80
2022-08-23T22:39:37.974Z,14.60
2022-08-23T22:42:06.634Z,14.50
2022-08-23T22:44:38.049Z,14.70
2022-08-23T22:47:07.923Z,14.80
2022-08-23T22:49:35.906Z,14.80
2022-08-23T22:52:04.403Z,14.80
2022-08-23T22:54:32.549Z,14.70
2022-08-23T22:57:03.266Z,14.80
2022-08-23T22:59:33.096Z,14.90
2022-08-23T23:02:03.226Z,14.90
2022-08-23T23:04:34.177Z,14.90
2022-08-23T23:07:02.783Z,14.90
2022-08-23T23:09:30.920Z,14.80
2022-08-23T23:11:58.972Z,14.80
2022-08-23T23:14:27.243Z,14.90
2022-08-23T23:16:55.344Z,14.60
2022-08-23T23:19:40.846Z,14.50
2022-08-23T23:22:10.362Z,14.60
2022-08-23T23:24:40.006Z,14.60
2022-08-23T23:27:08.092Z,14.60
2022-08-23T23:29:36.674Z,14.60
2022-08-23T23:32:05.097Z,14.50
2022-08-23T23:34:33.075Z,14.40
2022-08-23T23:37:01.042Z,14.40
2022-08-23T23:39:30.604Z,14.30
2022-08-23T23:41:58.621Z,14.20
2022-08-23T23:44:31.318Z,14.20
2022-08-23T23:47:00.335Z,14.40
2022-08-23T23:49:32.241Z,14.40
2022-08-23T23:52:01.651Z,14.20
2022-08-23T23:54:31.623Z,14.40
2022-08-23T23:56:59.895Z,14.30
2022-08-23T23:59:28.073Z,14.20
